createdAt,value
2022-10-18T00:01:37.888Z,69.04
2022-10-18T00:06:42.664Z,68.89
2022-10-18T00:11:45.584Z,69.14
2022-10-18T00:16:47.486Z,69.07
2022-10-18T00:21:52.204Z,69.34
2022-10-18T00:26:55.237Z,69.42
2022-10-18T00:31:57.151Z,69.61
2022-10-18T00:36:59.189Z,69.64
2022-10-18T00:42:01.185Z,70.55
2022-10-18T00:47:08.267Z,70.46
2022-10-18T00:52:13.659Z,70.68
2022-10-18T00:57:15.564Z,70.63
2022-10-18T01:02:18.516Z,70.93
2022-10-18T01:07:48.137Z,71.30
2022-10-18T01:13:02.079Z,71.53
2022-10-18T01:18:16.751Z,71.44
2022-10-18T01:23:41.259Z,71.57
2022-10-18T01:29:01.527Z,72.24
2022-10-18T01:34:06.338Z,72.32
2022-10-18T01:39:12.282Z,72.24
2022-10-18T01:44:18.018Z,72.36
2022-10-18T01:49:19.928Z,72.43
2022-10-18T01:54:32.973Z,72.72
2022-10-18T02:00:04.725Z,72.91
2022-10-18T02:05:25.284Z,72.60
2022-10-18T02:10:35.292Z,73.02
2022-10-18T02:15:41.826Z,73.05
2022-10-18T02:20:45.719Z,73.56
2022-10-18T02:25:47.732Z,73.63
2022-10-18T02:30:52.209Z,73.95
2022-10-18T02:36:00.167Z,74.39
2022-10-18T02:41:02.131Z,74.79
2022-10-18T02:46:04.068Z,74.45
2022-10-18T02:51:06.109Z,74.79
2022-10-18T02:56:08.484Z,75.11
2022-10-18T03:01:11.265Z,74.41
2022-10-18T03:06:13.268Z,74.79
2022-10-18T03:11:15.242Z,74.74
2022-10-18T03:16:17.890Z,75.32
2022-10-18T03:21:20.645Z,75.54
2022-10-18T03:26:22.591Z,75.04
2022-10-18T03:31:24.695Z,74.96
2022-10-18T03:36:26.825Z,75.01
2022-10-18T03:41:29.439Z,75.24
2022-10-18T03:46:31.548Z,75.35
2022-10-18T03:51:33.509Z,74.96
2022-10-18T03:56:35.526Z,75.48
2022-10-18T04:01:37.567Z,75.64
2022-10-18T04:06:39.529Z,75.85
2022-10-18T04:11:41.870Z,76.16
2022-10-18T04:16:43.822Z,76.06
2022-10-18T04:21:45.664Z,75.68
2022-10-18T04:26:48.326Z,75.76
2022-10-18T04:31:50.423Z,76.14
2022-10-18T04:36:52.484Z,76.51
2022-10-18T04:41:54.333Z,76.58
2022-10-18T04:46:56.159Z,76.87
2022-10-18T04:51:58.147Z,76.79
2022-10-18T04:57:01.489Z,76.85
2022-10-18T05:02:04.894Z,77.44
2022-10-18T05:07:06.886Z,77.71
2022-10-18T05:12:09.070Z,77.47
2022-10-18T05:17:10.953Z,77.71
2022-10-18T05:22:12.854Z,78.16
2022-10-18T05:27:14.751Z,77.64
2022-10-18T05:32:16.717Z,77.97
2022-10-18T05:37:19.071Z,77.36
2022-10-18T05:42:20.987Z,77.73
2022-10-18T05:47:22.853Z,78.03
2022-10-18T05:53:06.822Z,77.83
2022-10-18T05:58:14.487Z,78.11
2022-10-18T06:03:16.345Z,77.83
2022-10-18T06:08:18.269Z,78.18
2022-10-18T06:13:20.225Z,77.97
2022-10-18T06:18:22.185Z,77.88
2022-10-18T06:23:24.198Z,78.12
2022-10-18T06:28:26.659Z,78.27
2022-10-18T06:33:28.544Z,78.61
2022-10-18T06:38:30.925Z,77.97
2022-10-18T06:43:33.089Z,78.29
2022-10-18T06:48:36.212Z,78.06
2022-10-18T06:53:44.627Z,78.35
2022-10-18T06:59:00.902Z,77.57
2022-10-18T07:04:02.981Z,77.57
2022-10-18T07:09:05.010Z,77.64
2022-10-18T07:14:07.273Z,77.97
2022-10-18T07:19:52.087Z,77.82
2022-10-18T07:24:53.918Z,77.81
2022-10-18T07:29:55.814Z,77.58
2022-10-18T07:34:58.983Z,78.36
2022-10-18T07:40:00.885Z,78.09
2022-10-18T07:45:03.581Z,77.84
2022-10-18T07:50:06.903Z,77.93
2022-10-18T07:55:08.949Z,77.51
2022-10-18T08:00:11.787Z,77.63
2022-10-18T08:05:13.736Z,77.20
2022-10-18T08:10:15.741Z,77.34
2022-10-18T08:15:19.634Z,76.93
2022-10-18T08:20:30.508Z,75.83
2022-10-18T08:25:33.229Z,75.63
2022-10-18T08:30:36.091Z,75.33
2022-10-18T08:35:38.115Z,74.78
2022-10-18T08:40:45.218Z,74.59
2022-10-18T08:45:48.174Z,74.77
2022-10-18T08:50:51.266Z,73.77
2022-10-18T08:55:58.468Z,72.73
2022-10-18T09:01:37.946Z,71.69
2022-10-18T09:07:04.804Z,69.86
2022-10-18T09:12:27.478Z,67.71
2022-10-18T09:17:56.098Z,66.82
2022-10-18T09:23:12.668Z,66.40
2022-10-18T09:28:40.536Z,64.18
2022-10-18T09:33:58.720Z,60.43
2022-10-18T09:39:04.283Z,58.05
2022-10-18T09:44:14.948Z,56.58
2022-10-18T09:49:17.804Z,53.33
2022-10-18T09:54:28.655Z,52.52
2022-10-18T09:59:43.475Z,52.01
2022-10-18T10:04:45.554Z,50.69
2022-10-18T10:09:49.672Z,49.71
2022-10-18T10:14:51.551Z,49.61
2022-10-18T10:19:59.838Z,47.39
2022-10-18T10:25:02.176Z,48.25
2022-10-18T10:30:07.447Z,46.81
2022-10-18T10:35:53.065Z,46.96
2022-10-18T10:40:57.362Z,45.77
2022-10-18T10:46:08.102Z,45.27
2022-10-18T10:51:11.159Z,44.57
2022-10-18T10:56:27.454Z,43.67
2022-10-18T11:01:32.530Z,42.42
2022-10-18T11:06:52.133Z,42.34
2022-10-18T11:12:18.779Z,44.54
2022-10-18T11:17:43.461Z,44.71
2022-10-18T11:23:09.070Z,44.73
2022-10-18T11:28:35.744Z,45.11
2022-10-18T11:34:08.884Z,45.31
2022-10-18T11:39:37.893Z,45.02
2022-10-18T11:45:02.882Z,45.15
2022-10-18T11:50:30.802Z,46.01
2022-10-18T11:56:05.354Z,45.74
2022-10-18T12:01:28.569Z,45.65
2022-10-18T12:06:35.604Z,45.06
2022-10-18T12:11:47.151Z,44.95
2022-10-18T12:16:52.282Z,44.13
2022-10-18T12:22:03.462Z,44.42
2022-10-18T12:27:05.456Z,43.61
2022-10-18T12:32:13.436Z,43.27
2022-10-18T12:37:34.212Z,43.55
2022-10-18T12:42:41.858Z,46.36
2022-10-18T12:47:43.791Z,45.94
2022-10-18T12:53:21.348Z,45.65
2022-10-18T12:58:23.199Z,44.31
2022-10-18T13:03:25.007Z,44.45
2022-10-18T13:08:38.433Z,45.15
2022-10-18T13:13:59.102Z,43.09
2022-10-18T13:19:21.073Z,42.35
2022-10-18T13:24:43.926Z,41.07
2022-10-18T13:30:10.740Z,40.34
2022-10-18T13:35:52.016Z,38.71
2022-10-18T13:41:13.485Z,36.85
2022-10-18T13:47:32.942Z,38.34
2022-10-18T13:52:59.141Z,39.61
2022-10-18T13:58:20.507Z,37.25
2022-10-18T14:03:58.718Z,38.21
2022-10-18T14:09:25.423Z,38.16
2022-10-18T14:14:30.125Z,38.25
2022-10-18T14:21:14.212Z,36.75
2022-10-18T14:26:19.207Z,38.84
2022-10-18T14:31:21.115Z,36.42
2022-10-18T14:36:25.039Z,39.10
2022-10-18T14:41:31.684Z,40.28
2022-10-18T14:46:34.639Z,42.02
2022-10-18T14:51:36.973Z,38.57
2022-10-18T14:56:40.160Z,40.11
2022-10-18T15:01:55.667Z,40.09
2022-10-18T15:07:02.118Z,39.95
2022-10-18T15:12:05.774Z,37.92
2022-10-18T15:17:26.588Z,37.21
2022-10-18T15:29:43.554Z,38.37
2022-10-18T15:34:45.977Z,35.89
2022-10-18T15:46:57.536Z,37.13
2022-10-18T15:52:08.509Z,42.05
2022-10-18T15:57:10.629Z,41.44
2022-10-18T16:02:14.487Z,40.43
2022-10-18T16:07:16.378Z,42.20
2022-10-18T16:12:18.245Z,43.36
2022-10-18T16:17:20.069Z,42.97
2022-10-18T16:29:46.704Z,43.80
2022-10-18T16:34:48.659Z,45.25
2022-10-18T16:39:50.676Z,46.27
2022-10-18T16:44:54.383Z,47.61
2022-10-18T16:49:56.284Z,49.23
2022-10-18T16:54:58.208Z,49.13
2022-10-18T17:00:00.357Z,47.72
2022-10-18T17:05:02.207Z,49.27
2022-10-18T17:10:04.545Z,49.13
2022-10-18T17:15:07.399Z,47.70
2022-10-18T17:20:11.756Z,47.56
2022-10-18T17:25:14.081Z,48.48
2022-10-18T17:30:17.965Z,48.84
2022-10-18T17:35:19.872Z,48.68
2022-10-18T17:40:24.186Z,49.43
2022-10-18T17:45:26.867Z,49.07
2022-10-18T17:50:29.303Z,49.91
2022-10-18T17:55:31.204Z,50.08
2022-10-18T18:08:02.733Z,50.25
2022-10-18T18:13:05.981Z,50.74
2022-10-18T18:18:08.203Z,49.97
2022-10-18T18:23:12.000Z,51.13
2022-10-18T18:28:14.075Z,50.62
2022-10-18T18:33:16.366Z,51.84
2022-10-18T18:38:18.553Z,51.09
2022-10-18T18:43:23.739Z,51.57
2022-10-18T18:48:28.726Z,50.99
2022-10-18T18:53:31.430Z,50.75
2022-10-18T18:58:35.311Z,51.59
2022-10-18T19:03:38.894Z,52.03
2022-10-18T19:08:40.879Z,51.21
2022-10-18T19:13:44.803Z,52.59
2022-10-18T19:19:16.782Z,52.93
2022-10-18T19:24:21.014Z,53.27
2022-10-18T19:29:33.950Z,52.64
2022-10-18T19:34:35.920Z,52.98
2022-10-18T19:39:38.232Z,53.98
2022-10-18T19:44:41.284Z,54.55
2022-10-18T19:49:43.197Z,54.90
2022-10-18T19:54:45.410Z,54.79
2022-10-18T19:59:47.287Z,54.96
2022-10-18T20:04:49.113Z,54.69
2022-10-18T20:09:51.075Z,55.38
2022-10-18T20:14:52.920Z,55.46
2022-10-18T20:27:19.309Z,55.84
2022-10-18T20:32:21.168Z,55.95
2022-10-18T20:37:22.949Z,56.44
2022-10-18T20:42:24.887Z,56.30
2022-10-18T20:47:26.801Z,57.55
2022-10-18T20:52:28.775Z,57.97
2022-10-18T20:57:34.196Z,58.14
2022-10-18T21:02:38.490Z,58.17
2022-10-18T21:07:40.439Z,58.13
2022-10-18T21:12:42.431Z,58.13
2022-10-18T21:17:44.691Z,57.50
2022-10-18T21:22:52.351Z,57.85
2022-10-18T21:27:54.495Z,58.73
2022-10-18T21:32:56.454Z,58.08
2022-10-18T21:37:58.448Z,58.92
2022-10-18T21:43:00.523Z,59.42
2022-10-18T21:48:04.319Z,58.94
2022-10-18T21:53:06.433Z,59.31
2022-10-18T21:58:08.508Z,59.69
2022-10-18T22:03:13.043Z,60.25
2022-10-18T22:08:15.179Z,59.98
2022-10-18T22:13:17.285Z,60.31
2022-10-18T22:18:19.302Z,60.38
2022-10-18T22:23:21.422Z,60.89
2022-10-18T22:28:24.485Z,61.29
2022-10-18T22:33:27.044Z,61.19
2022-10-18T22:38:33.184Z,61.91
2022-10-18T22:43:35.973Z,62.62
2022-10-18T22:48:38.135Z,63.33
2022-10-18T22:53:41.660Z,63.62
2022-10-18T22:58:43.752Z,63.77
2022-10-18T23:03:45.910Z,63.60
2022-10-18T23:08:48.117Z,63.69
2022-10-18T23:13:50.702Z,64.09
2022-10-18T23:18:56.862Z,64.76
2022-10-18T23:23:58.724Z,65.29
2022-10-18T23:29:00.826Z,65.53
2022-10-18T23:34:04.669Z,65.68
2022-10-18T23:39:06.717Z,65.58
2022-10-18T23:44:09.280Z,65.26
2022-10-18T23:49:11.403Z,65.53
2022-10-18T23:54:13.307Z,65.26
2022-10-18T23:59:15.222Z,65.36
